Hlavní strana
METAR-TAF:

METAR-TAF

Letiště :

Ammán, Jordánsko

zeměpisná šířka: 31-59N, zeměpisná délka: 035-59E, výška: 767 m

Aktuální stav počasí

Zpráva byla vytvořena před 39 minutami, v 13:00 UTC
Východojihovýchodní vítr 10 kt
Teplota 10°C
Vlhkost vzduchu 32%
Tlak 1025 hPa
Viditelnost 10 km a více
Žádná oblačnost pod 1500 m, nevyskytují se cumulonimby.

METAR: OJAM 221300Z 12010KT CAVOK 10/M06 Q1025 NOSIG

Čas: 15:39 (13:39 UTC)

Předpověď počasí

Zpráva byla vytvořena před 2 hodinami a 59 minutami, v 10:40 UTC
Předpověď platná od 22 v 12 UTC do 23 v 18 UTC
Východojihovýchodní vítr 10 kt
Viditelnost: 6000 m
Dočasný
od 22 v 12 UTC do 22 v 16 UTC
Východojihovýchodní vítr 16 kt
Viditelnost: 4000 m
zvířený prach
Pravděpodobnost 40%
od 23 v 02 UTC do 23 v 06 UTC
vítr z různých směrů 1 kt
Viditelnost: 3000 m
kouřmo

TAF: OJAM 221040Z 2212/2318 11010KT 6000 NSC TEMPO 2212/2216 12016KT 4000 BLDU PROB40 2302/2306 VRB01KT 3000 BR

Stav a předpovědi počasí z více než 4 000 letišť (zprávy METAR a TAF).

Červené a žluté tečky na mapě představují dostupné meteorologické stanice.

Když kurzor umístíte na tečku, zobrazí se název stanice.

Pak kliknutím zobrazíte stav a předpověď počasí.

Chcete-li změnit mapu, kliknutím na zelené tlačítko se znaménkem +mapu přiblížíte, kliknutím na zelené tlačítko se znaménkem – mapu oddálíte a kliknutím na zelené šipky přejdete na sousední mapy.


METAR-TAF: